Time;durP1;ratioP1;P1;durP2;ratioP2;P2;SDS_P1;SDS_P2;PMS_P1;PMS_P2;Temp;Humidity;BMP_temperature;BMP_pressure;BME280_temperature;BME280_humidity;BME280_pressure;Samples;Min_cycle;Max_cycle;Signal;HPM_P1;HPM_P2
2023/02/11 00:00:43;;;;;;;;;;;;;;;12.37;67.58;103027.97;1271863;23;762;-65
2023/02/11 00:01:34;;;;;;;;;;;;;;;12.36;67.29;103030.75;1271519;23;938;-65
2023/02/11 00:02:28;;;;;;;;;;;;;;;12.37;68.06;103029.78;1271759;23;601;-65
2023/02/11 00:03:18;;;;;;;;;;;;;;;12.36;67.66;103034.25;1271792;23;637;-65
2023/02/11 00:04:09;;;;;;;;;;;;;;;12.37;68.39;103036.00;1272040;23;676;-65
2023/02/11 00:05:02;;;;;;;;;;;;;;;12.35;67.60;103035.22;1271574;23;626;-65
2023/02/11 00:05:52;;;;;;;;;;;;;;;12.35;67.35;103031.66;1271914;23;629;-66
2023/02/11 00:06:43;;;;;;;;;;;;;;;12.35;68.06;103026.31;1271616;23;637;-66
2023/02/11 00:07:33;;;;;;;;;;;;;;;12.36;68.08;103038.75;1271882;23;654;-66
2023/02/11 00:08:24;;;;;;;;;;;;;;;12.34;67.89;103037.94;1271583;23;637;-66
2023/02/11 00:09:14;;;;;;;;;;;;;;;12.33;68.02;103036.19;1265319;23;1897;-66
2023/02/11 00:10:07;;;;;;;;;;;;;;;12.33;67.59;103026.38;1267048;23;692;-66
2023/02/11 00:10:58;;;;;;;;;;;;;;;12.33;67.35;103029.06;1272544;23;613;-66
2023/02/11 00:11:48;;;;;;;;;;;;;;;12.33;67.73;103034.41;1271671;23;677;-66
2023/02/11 00:12:38;;;;;;;;;;;;;;;12.34;67.37;103027.25;1271755;23;637;-66
2023/02/11 00:13:29;;;;;;;;;;;;;;;12.33;67.98;103018.34;1271594;23;733;-66
2023/02/11 00:14:19;;;;;;;;;;;;;;;12.31;68.23;103017.53;1271772;23;745;-66
2023/02/11 00:15:10;;;;;;;;;;;;;;;12.33;68.38;103018.34;1272479;23;821;-66
2023/02/11 00:16:00;;;;;;;;;;;;;;;12.35;67.97;103010.28;1271691;23;654;-66
2023/02/11 00:16:51;;;;;;;;;;;;;;;12.33;68.52;103006.78;1272104;23;669;-65
2023/02/11 00:17:41;;;;;;;;;;;;;;;12.32;67.99;103007.72;1271697;23;606;-66
2023/02/11 00:18:31;;;;;;;;;;;;;;;12.32;67.45;103010.41;1271934;23;621;-65
2023/02/11 00:19:22;;;;;;;;;;;;;;;12.33;67.59;103012.13;1271558;23;602;-66
2023/02/11 00:20:12;;;;;;;;;;;;;;;12.33;68.45;103010.34;1271775;23;657;-65
2023/02/11 00:21:03;;;;;;;;;;;;;;;12.34;67.56;103013.88;1272467;23;637;-65
2023/02/11 00:21:53;;;;;;;;;;;;;;;12.33;67.68;103014.81;1271171;23;645;-66
2023/02/11 00:22:44;;;;;;;;;;;;;;;12.33;67.75;103013.00;1271893;23;642;-65
2023/02/11 00:23:34;;;;;;;;;;;;;;;12.34;67.79;103011.22;1271587;23;1133;-65
2023/02/11 00:24:25;;;;;;;;;;;;;;;12.35;67.36;103012.97;1272080;23;677;-66
2023/02/11 00:25:15;;;;;;;;;;;;;;;12.34;67.90;103014.75;1271698;23;673;-65
2023/02/11 00:26:05;;;;;;;;;;;;;;;12.34;67.83;103019.22;1271953;23;673;-65
2023/02/11 00:26:56;;;;;;;;;;;;;;;12.36;67.76;103018.22;1271674;23;751;-65
2023/02/11 00:27:46;;;;;;;;;;;;;;;12.36;67.50;103018.22;1271720;23;630;-66
2023/02/11 00:28:37;;;;;;;;;;;;;;;12.36;67.43;103028.06;1271917;23;618;-66
2023/02/11 00:29:27;;;;;;;;;;;;;;;12.35;67.89;103023.66;1271524;23;1905;-66
2023/02/11 00:30:17;;;;;;;;;;;;;;;12.31;68.07;103027.34;1271793;23;654;-66
2023/02/11 00:31:08;;;;;;;;;;;;;;;12.30;67.81;103020.28;1271591;23;661;-67
2023/02/11 00:32:04;;;;;;;;;;;;;;;12.32;68.03;103038.00;1271734;23;674;-66
2023/02/11 00:32:54;;;;;;;;;;;;;;;12.33;67.75;103030.84;1271539;23;665;-66
2023/02/11 00:33:44;;;;;;;;;;;;;;;12.33;67.84;103031.72;1271823;23;691;-66
2023/02/11 00:34:35;;;;;;;;;;;;;;;12.34;68.32;103040.63;1271487;23;661;-66
2023/02/11 00:35:25;;;;;;;;;;;;;;;12.34;67.42;103037.94;1271767;23;687;-66
2023/02/11 00:36:16;;;;;;;;;;;;;;;12.35;68.24;103039.69;1271328;23;618;-65
2023/02/11 00:37:06;;;;;;;;;;;;;;;12.34;67.68;103040.63;1271497;23;632;-65
2023/02/11 00:37:56;;;;;;;;;;;;;;;12.32;67.80;103040.69;1271891;23;661;-65
2023/02/11 00:38:47;;;;;;;;;;;;;;;12.32;68.23;103040.69;1271615;23;661;-66
2023/02/11 00:39:37;;;;;;;;;;;;;;;12.33;67.45;103042.41;1271833;23;764;-66
2023/02/11 00:40:28;;;;;;;;;;;;;;;12.32;68.05;103038.00;1271450;23;634;-65
2023/02/11 00:41:18;;;;;;;;;;;;;;;12.33;68.00;103033.53;1271487;23;672;-66
2023/02/11 00:42:09;;;;;;;;;;;;;;;12.32;68.13;103040.69;1271597;23;653;-65
2023/02/11 00:42:59;;;;;;;;;;;;;;;12.33;67.73;103031.72;1271366;23;609;-65
2023/02/11 00:43:49;;;;;;;;;;;;;;;12.36;68.53;103033.41;1271875;23;697;-66
2023/02/11 00:44:40;;;;;;;;;;;;;;;12.36;68.42;103033.41;1271654;23;620;-66
2023/02/11 00:45:30;;;;;;;;;;;;;;;12.35;68.11;103031.66;1271786;23;707;-65
2023/02/11 00:46:21;;;;;;;;;;;;;;;12.36;67.35;103033.41;1271458;23;747;-65
2023/02/11 00:47:11;;;;;;;;;;;;;;;12.36;68.10;103028.06;1271725;23;621;-65
2023/02/11 00:48:02;;;;;;;;;;;;;;;12.35;67.59;103031.66;1271798;23;657;-65
2023/02/11 00:48:56;;;;;;;;;;;;;;;12.34;67.95;103024.56;1271585;23;652;-65
2023/02/11 00:49:46;;;;;;;;;;;;;;;12.34;67.72;103028.13;1271675;23;810;-65
2023/02/11 00:50:37;;;;;;;;;;;;;;;12.33;67.69;103025.50;1270812;23;657;-65
2023/02/11 00:51:27;;;;;;;;;;;;;;;12.31;67.70;103019.34;1271607;23;756;-65
2023/02/11 00:52:18;;;;;;;;;;;;;;;12.31;68.22;103019.34;1271739;23;684;-65
2023/02/11 00:53:08;;;;;;;;;;;;;;;12.32;68.50;103021.97;1271671;23;677;-65
2023/02/11 00:53:58;;;;;;;;;;;;;;;12.34;68.35;103025.44;1271887;23;712;-65
2023/02/11 00:54:49;;;;;;;;;;;;;;;12.33;67.60;103018.34;1271703;23;602;-65
2023/02/11 00:55:39;;;;;;;;;;;;;;;12.34;68.57;103016.56;1271444;23;1213;-65
2023/02/11 00:56:30;;;;;;;;;;;;;;;12.34;68.43;103014.75;1271970;23;640;-65
2023/02/11 00:57:20;;;;;;;;;;;;;;;12.32;68.49;103011.28;1271744;23;629;-65
2023/02/11 00:58:11;;;;;;;;;;;;;;;12.31;68.68;103014.88;1266282;23;665;-65
2023/02/11 00:59:01;;;;;;;;;;;;;;;12.31;68.22;103011.31;1266034;23;590;-65
2023/02/11 00:59:51;;;;;;;;;;;;;;;12.32;68.43;103016.63;1272369;23;600;-65
2023/02/11 01:00:42;;;;;;;;;;;;;;;12.31;68.74;103006.84;1271341;23;649;-65
2023/02/11 01:01:33;;;;;;;;;;;;;;;12.30;68.86;103001.56;1271476;23;625;-66
2023/02/11 01:02:23;;;;;;;;;;;;;;;12.29;68.72;102999.81;1271715;23;762;-66
2023/02/11 01:03:14;;;;;;;;;;;;;;;12.30;68.50;102997.09;1271427;23;699;-66
2023/02/11 01:04:04;;;;;;;;;;;;;;;12.30;68.86;102996.22;1271658;23;614;-65
2023/02/11 01:04:55;;;;;;;;;;;;;;;12.31;68.39;102997.94;1271879;23;634;-67
2023/02/11 01:05:45;;;;;;;;;;;;;;;12.29;68.63;102994.47;1271641;23;610;-66
2023/02/11 01:06:36;;;;;;;;;;;;;;;12.27;68.24;102994.50;1271757;23;680;-66
2023/02/11 01:07:26;;;;;;;;;;;;;;;12.29;68.49;102999.81;1271475;23;653;-66
2023/02/11 01:08:16;;;;;;;;;;;;;;;12.31;68.45;102997.94;1271791;23;728;-66
2023/02/11 01:09:07;;;;;;;;;;;;;;;12.31;68.69;103003.31;1271426;23;1900;-66
2023/02/11 01:09:57;;;;;;;;;;;;;;;12.31;68.62;102998.81;1271871;23;614;-67
2023/02/11 01:10:48;;;;;;;;;;;;;;;12.31;67.91;102997.94;1271746;23;660;-65
2023/02/11 01:11:38;;;;;;;;;;;;;;;12.32;67.77;102999.69;1271584;23;618;-66
2023/02/11 01:12:29;;;;;;;;;;;;;;;12.33;68.18;102998.78;1271675;23;629;-66
2023/02/11 01:13:19;;;;;;;;;;;;;;;12.32;68.78;102994.34;1271585;23;638;-66
2023/02/11 01:14:09;;;;;;;;;;;;;;;12.31;67.81;102988.13;1271849;23;641;-66
2023/02/11 01:15:00;;;;;;;;;;;;;;;12.32;68.00;102983.66;1271475;23;576;-66
2023/02/11 01:15:50;;;;;;;;;;;;;;;12.30;68.83;102985.50;1271738;23;622;-66
2023/02/11 01:16:41;;;;;;;;;;;;;;;12.32;68.22;102989.00;1271777;23;656;-65
2023/02/11 01:17:31;;;;;;;;;;;;;;;12.31;67.74;102989.94;1271750;23;630;-64
2023/02/11 01:18:21;;;;;;;;;;;;;;;12.32;68.06;102989.00;1271889;23;685;-65
2023/02/11 01:19:12;;;;;;;;;;;;;;;12.32;68.70;102994.34;1271676;23;621;-64
2023/02/11 01:20:02;;;;;;;;;;;;;;;12.33;68.76;102993.44;1271521;23;685;-65
2023/02/11 01:20:53;;;;;;;;;;;;;;;12.33;67.71;102990.75;1271275;23;627;-65
2023/02/11 01:21:43;;;;;;;;;;;;;;;12.33;68.14;102993.44;1271669;23;633;-65
2023/02/11 01:22:38;;;;;;;;;;;;;;;12.33;67.73;102998.78;1266235;23;621;-65
2023/02/11 01:23:28;;;;;;;;;;;;;;;12.32;67.89;102994.34;1266043;23;614;-64
2023/02/11 01:24:19;;;;;;;;;;;;;;;12.32;67.82;102994.34;1272272;23;680;-64
2023/02/11 01:25:09;;;;;;;;;;;;;;;12.31;68.30;102998.81;1272772;23;676;-64
2023/02/11 01:26:00;;;;;;;;;;;;;;;12.32;68.04;103005.03;1271806;23;661;-64
2023/02/11 01:26:50;;;;;;;;;;;;;;;12.31;68.14;103003.31;1271535;23;787;-65
2023/02/11 01:27:40;;;;;;;;;;;;;;;12.32;67.98;103008.59;1271740;23;649;-65
2023/02/11 01:28:31;;;;;;;;;;;;;;;12.33;68.31;103009.47;1271392;23;665;-65
2023/02/11 01:29:21;;;;;;;;;;;;;;;12.33;67.88;103006.78;1271528;23;1880;-65
2023/02/11 01:30:12;;;;;;;;;;;;;;;12.33;67.91;103013.00;1271866;23;665;-64
2023/02/11 01:31:02;;;;;;;;;;;;;;;12.32;68.21;103013.06;1271584;23;646;-65
2023/02/11 01:31:53;;;;;;;;;;;;;;;12.30;68.39;103009.56;1271834;23;692;-64
2023/02/11 01:32:43;;;;;;;;;;;;;;;12.31;68.21;103016.66;1271446;23;634;-64
2023/02/11 01:33:33;;;;;;;;;;;;;;;12.30;68.56;103013.13;1271713;23;622;-64
2023/02/11 01:34:24;;;;;;;;;;;;;;;12.29;67.85;103006.03;1270893;23;620;-64
2023/02/11 01:35:14;;;;;;;;;;;;;;;12.29;68.02;103002.47;1271602;23;625;-66
2023/02/11 01:36:05;;;;;;;;;;;;;;;12.29;68.52;103006.03;1266121;23;646;-65
2023/02/11 01:36:55;;;;;;;;;;;;;;;12.29;67.96;103007.81;1266136;23;649;-65
2023/02/11 01:37:46;;;;;;;;;;;;;;;12.28;67.72;103006.97;1272568;23;700;-66
2023/02/11 01:38:36;;;;;;;;;;;;;;;12.29;68.18;103007.81;1271414;23;602;-66
2023/02/11 01:39:27;;;;;;;;;;;;;;;12.28;68.26;103006.97;1271733;23;688;-66
2023/02/11 01:40:17;;;;;;;;;;;;;;;12.29;67.79;103013.19;1271741;23;621;-66
2023/02/11 01:41:08;;;;;;;;;;;;;;;12.28;67.71;103009.63;1271758;23;640;-66
2023/02/11 01:41:58;;;;;;;;;;;;;;;12.26;68.26;103005.25;1272479;23;708;-66
2023/02/11 01:42:48;;;;;;;;;;;;;;;12.26;68.30;103011.47;1271779;23;602;-66
2023/02/11 01:43:39;;;;;;;;;;;;;;;12.25;68.37;103000.84;1266270;23;660;-66
2023/02/11 01:44:29;;;;;;;;;;;;;;;12.27;67.97;103001.66;1266436;23;601;-66
2023/02/11 01:45:20;;;;;;;;;;;;;;;12.27;68.28;103007.00;1272903;23;705;-64
2023/02/11 01:46:10;;;;;;;;;;;;;;;12.24;67.98;102997.28;1272010;23;637;-66
2023/02/11 01:47:03;;;;;;;;;;;;;;;12.26;67.82;103006.13;1272119;23;677;-66
2023/02/11 01:47:54;;;;;;;;;;;;;;;12.26;67.84;103006.13;1272109;23;696;-66
2023/02/11 01:48:44;;;;;;;;;;;;;;;12.27;68.36;103010.56;1271322;23;649;-65
2023/02/11 01:49:35;;;;;;;;;;;;;;;12.27;68.26;103007.88;1272087;23;655;-66
2023/02/11 01:50:25;;;;;;;;;;;;;;;12.26;68.61;103005.25;1272942;23;649;-65
2023/02/11 01:51:16;;;;;;;;;;;;;;;12.26;67.98;103010.59;1272067;23;660;-65
2023/02/11 01:52:06;;;;;;;;;;;;;;;12.25;67.82;103009.75;1271873;23;622;-66
2023/02/11 01:57:20;;;;;;;;;;;;;;;12.25;68.25;103006.19;1272176;23;773;-65
2023/02/11 01:57:34;;;;;;;;;;;;;;;12.28;68.62;102998.94;1272785;23;617;-66
2023/02/11 01:58:25;;;;;;;;;;;;;;;12.29;68.46;103010.50;1271852;23;645;-66
2023/02/11 01:59:15;;;;;;;;;;;;;;;12.29;68.20;103010.50;1271953;23;621;-66
2023/02/11 02:00:06;;;;;;;;;;;;;;;12.28;68.34;103006.97;1272213;23;626;-66
2023/02/11 02:00:57;;;;;;;;;;;;;;;12.27;68.17;103002.53;1271864;23;652;-66
2023/02/11 02:01:48;;;;;;;;;;;;;;;12.28;68.72;103006.09;1272131;23;642;-66
2023/02/11 02:02:38;;;;;;;;;;;;;;;12.27;68.39;103007.88;1271852;23;603;-66
2023/02/11 02:03:28;;;;;;;;;;;;;;;12.27;67.87;103012.34;1271477;23;637;-66
2023/02/11 02:04:19;;;;;;;;;;;;;;;12.27;68.42;103010.56;1271769;23;669;-66
2023/02/11 02:05:09;;;;;;;;;;;;;;;12.28;68.43;103008.75;1272017;23;737;-66
2023/02/11 02:06:00;;;;;;;;;;;;;;;12.24;68.44;103010.66;1272150;23;661;-66
2023/02/11 02:06:50;;;;;;;;;;;;;;;12.23;68.38;103005.38;1271922;23;673;-65
2023/02/11 02:07:41;;;;;;;;;;;;;;;12.24;68.83;103001.78;1272021;23;658;-66
2023/02/11 02:08:31;;;;;;;;;;;;;;;12.24;68.02;103001.78;1271878;23;754;-66
2023/02/11 02:09:21;;;;;;;;;;;;;;;12.24;68.21;103001.78;1271889;23;1893;-65
2023/02/11 02:10:12;;;;;;;;;;;;;;;12.24;68.14;103002.66;1271856;23;613;-66
2023/02/11 02:11:02;;;;;;;;;;;;;;;12.24;68.81;102994.63;1272740;23;602;-66
2023/02/11 02:11:53;;;;;;;;;;;;;;;12.25;67.98;102998.16;1272180;23;614;-66
2023/02/11 02:12:43;;;;;;;;;;;;;;;12.26;68.20;102999.91;1271949;23;748;-65
2023/02/11 02:13:34;;;;;;;;;;;;;;;12.23;68.89;102990.22;1272249;23;641;-65
2023/02/11 02:14:25;;;;;;;;;;;;;;;12.23;68.26;102986.66;1271850;23;622;-66
2023/02/11 02:15:15;;;;;;;;;;;;;;;12.21;68.05;102994.72;1266304;23;633;-66
2023/02/11 02:16:06;;;;;;;;;;;;;;;12.20;68.59;102994.78;1267197;23;645;-66
2023/02/11 02:16:56;;;;;;;;;;;;;;;12.19;68.51;102988.56;1272819;23;664;-66
2023/02/11 02:17:47;;;;;;;;;;;;;;;12.18;68.40;102997.56;1271604;23;633;-65
2023/02/11 02:18:37;;;;;;;;;;;;;;;12.20;68.10;102989.44;1271908;23;676;-66
2023/02/11 02:19:27;;;;;;;;;;;;;;;12.20;68.38;103001.00;1266302;23;700;-66
2023/02/11 02:20:18;;;;;;;;;;;;;;;12.17;68.76;102998.47;1267191;23;812;-66
2023/02/11 02:21:08;;;;;;;;;;;;;;;12.17;68.21;102998.47;1272759;23;641;-66
2023/02/11 02:21:59;;;;;;;;;;;;;;;12.18;68.53;102997.56;1266523;23;669;-66
2023/02/11 02:22:49;;;;;;;;;;;;;;;12.18;68.22;102998.38;1267179;23;637;-66
2023/02/11 02:23:40;;;;;;;;;;;;;;;12.18;68.27;102996.69;1273673;23;551;-66
2023/02/11 02:24:30;;;;;;;;;;;;;;;12.20;68.57;103002.81;1271801;23;921;-65
2023/02/11 02:25:20;;;;;;;;;;;;;;;12.20;68.08;103001.00;1271944;23;680;-66
2023/02/11 02:26:11;;;;;;;;;;;;;;;12.22;68.09;103000.97;1272281;23;661;-66
2023/02/11 02:27:01;;;;;;;;;;;;;;;12.20;69.11;102994.78;1272048;23;621;-66
2023/02/11 02:27:52;;;;;;;;;;;;;;;12.21;68.53;102988.53;1272237;23;684;-65
2023/02/11 02:28:42;;;;;;;;;;;;;;;12.21;68.87;102985.84;1271687;23;638;-66
2023/02/11 02:29:33;;;;;;;;;;;;;;;12.18;68.90;102990.38;1271986;23;1910;-65
2023/02/11 02:30:23;;;;;;;;;;;;;;;12.18;68.40;102986.00;1271852;23;653;-65
2023/02/11 02:31:14;;;;;;;;;;;;;;;12.18;69.08;102992.22;1271964;23;669;-66
2023/02/11 02:32:04;;;;;;;;;;;;;;;12.19;68.17;102993.91;1272132;23;780;-66
2023/02/11 02:32:54;;;;;;;;;;;;;;;12.18;68.61;102986.84;1272021;23;657;-68
2023/02/11 02:33:45;;;;;;;;;;;;;;;12.18;68.44;102987.69;1272142;23;641;-66
2023/02/11 02:34:35;;;;;;;;;;;;;;;12.18;68.49;102982.34;1271975;23;656;-66
2023/02/11 02:35:26;;;;;;;;;;;;;;;12.18;68.17;102983.31;1272137;23;633;-67
2023/02/11 02:36:16;;;;;;;;;;;;;;;12.19;68.80;102977.88;1271902;23;593;-66
2023/02/11 02:37:07;;;;;;;;;;;;;;;12.18;68.92;102965.47;1271987;23;669;-66
2023/02/11 02:37:57;;;;;;;;;;;;;;;12.18;68.53;102975.28;1271850;23;718;-66
2023/02/11 02:38:48;;;;;;;;;;;;;;;12.18;68.30;102972.63;1272203;23;656;-66
2023/02/11 02:39:38;;;;;;;;;;;;;;;12.18;68.26;102967.28;1271754;23;622;-66
2023/02/11 02:40:29;;;;;;;;;;;;;;;12.21;68.58;102975.16;1271987;23;746;-66
2023/02/11 02:41:19;;;;;;;;;;;;;;;12.22;68.99;102975.09;1271655;23;665;-67
2023/02/11 02:42:09;;;;;;;;;;;;;;;12.21;69.05;102967.13;1271855;23;1111;-67
2023/02/11 02:43:00;;;;;;;;;;;;;;;12.20;69.01;102968.06;1272174;23;684;-67
2023/02/11 02:43:50;;;;;;;;;;;;;;;12.16;68.50;102978.91;1271922;23;661;-67
2023/02/11 02:44:41;;;;;;;;;;;;;;;12.17;68.39;102985.13;1271911;23;664;-67
2023/02/11 02:45:31;;;;;;;;;;;;;;;12.18;68.99;102986.00;1272697;23;695;-67
2023/02/11 02:46:22;;;;;;;;;;;;;;;12.18;69.00;102980.63;1271786;23;642;-66
2023/02/11 02:47:12;;;;;;;;;;;;;;;12.16;68.35;102984.25;1271670;23;688;-66
2023/02/11 02:48:02;;;;;;;;;;;;;;;12.18;68.50;102984.19;1271863;23;638;-66
2023/02/11 02:48:53;;;;;;;;;;;;;;;12.18;69.18;102987.69;1272116;23;673;-66
2023/02/11 02:49:43;;;;;;;;;;;;;;;12.18;69.11;102997.56;1271743;23;739;-67
2023/02/11 02:50:34;;;;;;;;;;;;;;;12.18;69.33;102988.66;1266416;23;723;-66
2023/02/11 02:51:24;;;;;;;;;;;;;;;12.20;69.25;102986.78;1267047;23;771;-66
2023/02/11 02:52:14;;;;;;;;;;;;;;;12.20;68.40;102994.78;1272583;23;629;-67
2023/02/11 02:53:05;;;;;;;;;;;;;;;12.22;69.02;102990.25;1272104;23;602;-67
2023/02/11 02:53:55;;;;;;;;;;;;;;;12.23;68.18;102997.34;1271750;23;677;-66
2023/02/11 02:54:46;;;;;;;;;;;;;;;12.21;68.58;102991.19;1272122;23;652;-67
2023/02/11 02:55:36;;;;;;;;;;;;;;;12.21;69.14;102991.19;1271662;23;1249;-66
2023/02/11 02:56:27;;;;;;;;;;;;;;;12.19;68.88;102993.91;1271910;23;668;-67
2023/02/11 02:57:17;;;;;;;;;;;;;;;12.18;69.22;102986.00;1271727;23;592;-67
2023/02/11 02:58:07;;;;;;;;;;;;;;;12.18;68.57;102986.00;1271932;23;614;-67
2023/02/11 02:58:58;;;;;;;;;;;;;;;12.16;68.58;102989.59;1272146;23;632;-67
2023/02/11 02:59:48;;;;;;;;;;;;;;;12.18;68.53;102991.34;1271732;23;719;-66
2023/02/11 03:00:40;;;;;;;;;;;;;;;12.18;68.34;102990.38;1272000;23;630;-66
2023/02/11 03:01:32;;;;;;;;;;;;;;;12.16;68.76;102988.72;1271622;23;669;-66
2023/02/11 03:02:22;;;;;;;;;;;;;;;12.16;68.95;102988.72;1272659;23;637;-66
2023/02/11 03:03:12;;;;;;;;;;;;;;;12.18;69.43;102996.69;1271905;23;613;-66
2023/02/11 03:04:03;;;;;;;;;;;;;;;12.18;68.34;102981.50;1272032;23;688;-66
2023/02/11 03:04:53;;;;;;;;;;;;;;;12.18;68.60;102980.63;1271792;23;660;-66
2023/02/11 03:05:44;;;;;;;;;;;;;;;12.18;68.48;102982.34;1272002;23;649;-67
2023/02/11 03:06:34;;;;;;;;;;;;;;;12.18;68.83;102977.97;1271639;23;622;-65
2023/02/11 03:07:25;;;;;;;;;;;;;;;12.16;69.24;102984.25;1271810;23;689;-65
2023/02/11 03:08:15;;;;;;;;;;;;;;;12.18;68.79;102979.69;1271737;23;656;-65
2023/02/11 03:09:05;;;;;;;;;;;;;;;12.18;68.84;102976.16;1271842;23;664;-65
2023/02/11 03:09:56;;;;;;;;;;;;;;;12.18;68.99;102982.34;1272006;23;656;-66
2023/02/11 03:10:46;;;;;;;;;;;;;;;12.18;68.45;102980.63;1271907;23;636;-65
2023/02/11 03:11:37;;;;;;;;;;;;;;;12.18;68.65;102975.28;1272091;23;669;-65
2023/02/11 03:12:27;;;;;;;;;;;;;;;12.15;68.72;102974.47;1271781;23;609;-65
2023/02/11 03:13:18;;;;;;;;;;;;;;;12.16;69.37;102983.38;1271911;23;661;-64
2023/02/11 03:14:08;;;;;;;;;;;;;;;12.14;68.76;102975.41;1272662;23;637;-65
2023/02/11 03:14:58;;;;;;;;;;;;;;;12.13;68.48;102976.34;1271919;23;630;-65
2023/02/11 03:15:49;;;;;;;;;;;;;;;12.12;68.72;102982.59;1271467;23;845;-65
2023/02/11 03:16:39;;;;;;;;;;;;;;;12.14;68.62;102972.72;1271623;23;625;-64
2023/02/11 03:17:30;;;;;;;;;;;;;;;12.14;69.01;102974.53;1271999;23;657;-64
2023/02/11 03:18:20;;;;;;;;;;;;;;;12.14;69.47;102975.41;1271682;23;661;-64
2023/02/11 03:19:11;;;;;;;;;;;;;;;12.13;68.68;102970.97;1271955;23;611;-65
2023/02/11 03:20:01;;;;;;;;;;;;;;;12.12;68.71;102966.56;1272103;23;681;-64
2023/02/11 03:20:52;;;;;;;;;;;;;;;12.15;68.60;102966.47;1271901;23;630;-65
2023/02/11 03:21:42;;;;;;;;;;;;;;;12.15;68.59;102966.47;1271594;23;618;-65
2023/02/11 03:22:33;;;;;;;;;;;;;;;12.16;68.55;102970.88;1271822;23;629;-65
2023/02/11 03:23:23;;;;;;;;;;;;;;;12.17;69.28;102969.06;1272586;23;603;-64
2023/02/11 03:24:13;;;;;;;;;;;;;;;12.16;69.09;102962.84;1271854;23;613;-64
2023/02/11 03:25:04;;;;;;;;;;;;;;;12.16;68.58;102970.00;1271988;23;658;-65
2023/02/11 03:25:54;;;;;;;;;;;;;;;12.14;69.33;102958.50;1271781;23;640;-66
2023/02/11 03:26:45;;;;;;;;;;;;;;;12.15;68.76;102962.91;1272001;23;649;-65
2023/02/11 03:27:35;;;;;;;;;;;;;;;12.13;68.57;102964.78;1271794;23;637;-65
2023/02/11 03:28:26;;;;;;;;;;;;;;;12.13;69.31;102962.97;1271816;23;661;-65
2023/02/11 03:29:16;;;;;;;;;;;;;;;12.13;69.04;102959.41;1271988;23;1938;-66
2023/02/11 03:30:06;;;;;;;;;;;;;;;12.14;69.24;102958.50;1265568;23;614;-66
2023/02/11 03:30:57;;;;;;;;;;;;;;;12.13;68.75;102957.63;1267058;23;664;-65
2023/02/11 03:31:47;;;;;;;;;;;;;;;12.13;69.33;102957.63;1272589;23;645;-66
2023/02/11 03:32:38;;;;;;;;;;;;;;;12.13;68.35;102960.28;1271856;23;708;-65
2023/02/11 03:33:28;;;;;;;;;;;;;;;12.14;68.93;102955.81;1271623;23;610;-65
2023/02/11 03:34:19;;;;;;;;;;;;;;;12.13;68.59;102957.63;1271831;23;625;-65
2023/02/11 03:35:09;;;;;;;;;;;;;;;12.12;69.31;102955.88;1271968;23;633;-66
2023/02/11 03:35:59;;;;;;;;;;;;;;;12.09;68.70;102961.34;1271861;23;630;-65
2023/02/11 03:36:50;;;;;;;;;;;;;;;12.12;68.55;102957.69;1271800;23;649;-65
2023/02/11 03:37:40;;;;;;;;;;;;;;;12.10;69.00;102952.38;1271711;23;590;-65
2023/02/11 03:38:31;;;;;;;;;;;;;;;12.12;69.33;102961.22;1271852;23;689;-65
2023/02/11 03:39:21;;;;;;;;;;;;;;;12.10;68.95;102960.41;1271596;23;634;-65
2023/02/11 03:40:11;;;;;;;;;;;;;;;12.11;69.52;102951.47;1271817;23;594;-65
2023/02/11 03:41:02;;;;;;;;;;;;;;;12.10;68.53;102952.38;1272048;23;619;-66
2023/02/11 03:41:52;;;;;;;;;;;;;;;12.09;68.55;102939.09;1271888;23;598;-66
2023/02/11 03:42:43;;;;;;;;;;;;;;;12.09;68.62;102947.97;1271955;23;625;-67
2023/02/11 03:43:33;;;;;;;;;;;;;;;12.10;69.35;102944.38;1271620;23;589;-66
2023/02/11 03:44:24;;;;;;;;;;;;;;;12.09;69.35;102950.66;1271920;23;708;-66
2023/02/11 03:45:14;;;;;;;;;;;;;;;12.11;69.53;102945.25;1271567;23;618;-66
2023/02/11 03:46:05;;;;;;;;;;;;;;;12.11;68.75;102940.78;1271829;23;630;-65
2023/02/11 03:46:55;;;;;;;;;;;;;;;12.13;68.69;102935.38;1271831;23;641;-66
2023/02/11 03:47:45;;;;;;;;;;;;;;;12.11;68.72;102938.09;1271749;23;645;-66
2023/02/11 03:48:36;;;;;;;;;;;;;;;12.11;68.68;102946.13;1271884;23;640;-65
2023/02/11 03:49:26;;;;;;;;;;;;;;;12.10;69.29;102944.38;1271488;23;1881;-65
2023/02/11 03:50:17;;;;;;;;;;;;;;;12.10;68.49;102941.69;1271889;23;625;-65
2023/02/11 03:51:07;;;;;;;;;;;;;;;12.10;68.66;102940.81;1272537;23;789;-65
2023/02/11 03:51:57;;;;;;;;;;;;;;;12.10;68.67;102946.16;1271897;23;646;-65
2023/02/11 03:52:48;;;;;;;;;;;;;;;12.10;69.42;102948.84;1271846;23;845;-65
2023/02/11 03:53:38;;;;;;;;;;;;;;;12.10;69.43;102955.06;1271765;23;602;-65
2023/02/11 03:54:29;;;;;;;;;;;;;;;12.11;68.59;102953.25;1271949;23;622;-65
2023/02/11 03:55:19;;;;;;;;;;;;;;;12.09;69.03;102950.66;1271679;23;589;-66
2023/02/11 03:56:10;;;;;;;;;;;;;;;12.08;69.07;102950.69;1271855;23;666;-66
2023/02/11 03:57:00;;;;;;;;;;;;;;;12.07;68.71;102947.16;1271693;23;657;-66
2023/02/11 03:57:50;;;;;;;;;;;;;;;12.09;68.47;102950.66;1271831;23;625;-65
2023/02/11 03:58:41;;;;;;;;;;;;;;;12.10;68.58;102947.03;1271935;23;656;-66
2023/02/11 03:59:31;;;;;;;;;;;;;;;12.10;68.90;102947.03;1271698;23;653;-65
2023/02/11 04:00:22;;;;;;;;;;;;;;;12.08;68.50;102954.25;1271821;23;622;-65
2023/02/11 04:01:12;;;;;;;;;;;;;;;12.08;69.12;102954.25;1271524;23;649;-65
2023/02/11 04:02:03;;;;;;;;;;;;;;;12.08;69.32;102950.69;1271977;23;645;-65
2023/02/11 04:02:53;;;;;;;;;;;;;;;12.08;69.55;102959.59;1271674;23;634;-65
2023/02/11 04:03:44;;;;;;;;;;;;;;;12.09;68.67;102949.78;1271778;23;720;-64
2023/02/11 04:04:34;;;;;;;;;;;;;;;12.09;68.77;102955.13;1272032;23;628;-64
2023/02/11 04:05:24;;;;;;;;;;;;;;;12.09;69.52;102955.13;1271364;23;634;-65
2023/02/11 04:06:15;;;;;;;;;;;;;;;12.09;69.40;102949.78;1271949;23;676;-65
2023/02/11 04:07:05;;;;;;;;;;;;;;;12.09;69.00;102950.66;1271662;23;661;-65
2023/02/11 04:07:56;;;;;;;;;;;;;;;12.08;69.59;102946.22;1271889;23;692;-65
2023/02/11 04:08:46;;;;;;;;;;;;;;;12.09;68.81;102949.78;1273430;23;700;-65
2023/02/11 04:09:37;;;;;;;;;;;;;;;12.09;68.58;102949.78;1271641;23;1944;-65
2023/02/11 04:10:27;;;;;;;;;;;;;;;12.08;68.95;102948.03;1271868;23;685;-65
2023/02/11 04:11:17;;;;;;;;;;;;;;;12.07;68.88;102947.16;1271652;23;618;-65
2023/02/11 04:12:08;;;;;;;;;;;;;;;12.07;69.33;102947.16;1272109;23;658;-65
2023/02/11 04:12:58;;;;;;;;;;;;;;;12.09;69.40;102947.09;1271669;23;657;-65
2023/02/11 04:13:49;;;;;;;;;;;;;;;12.05;68.65;102949.00;1271207;23;614;-65
2023/02/11 04:14:39;;;;;;;;;;;;;;;12.05;69.08;102941.00;1271989;23;544;-65
2023/02/11 04:15:29;;;;;;;;;;;;;;;12.05;69.44;102949.00;1271767;23;622;-66
2023/02/11 04:16:20;;;;;;;;;;;;;;;12.07;68.68;102948.94;1271757;23;677;-66
2023/02/11 04:17:10;;;;;;;;;;;;;;;12.06;68.57;102950.75;1271710;23;766;-66
2023/02/11 04:18:02;;;;;;;;;;;;;;;12.08;68.86;102948.03;1271747;23;636;-66
2023/02/11 04:18:52;;;;;;;;;;;;;;;12.08;68.45;102954.25;1271648;23;622;-65
2023/02/11 04:19:43;;;;;;;;;;;;;;;12.07;68.78;102944.47;1271868;23;673;-65
2023/02/11 04:20:33;;;;;;;;;;;;;;;12.06;69.31;102942.72;1271573;23;625;-65
2023/02/11 04:21:24;;;;;;;;;;;;;;;12.05;68.72;102945.47;1271649;23;676;-64
2023/02/11 04:22:14;;;;;;;;;;;;;;;12.04;69.10;102949.94;1271909;23;625;-66
2023/02/11 04:23:04;;;;;;;;;;;;;;;12.05;68.86;102946.34;1271692;23;634;-64
2023/02/11 04:23:55;;;;;;;;;;;;;;;12.06;68.54;102947.22;1272567;23;649;-64
2023/02/11 04:24:45;;;;;;;;;;;;;;;12.06;68.81;102940.06;1271575;23;738;-67
2023/02/11 04:25:36;;;;;;;;;;;;;;;12.05;68.46;102948.13;1271698;23;657;-65
2023/02/11 04:26:26;;;;;;;;;;;;;;;12.05;68.78;102951.69;1271962;23;636;-65
2023/02/11 04:27:17;;;;;;;;;;;;;;;12.03;69.43;102950.84;1271622;23;657;-65
2023/02/11 04:28:07;;;;;;;;;;;;;;;12.05;68.85;102953.47;1271419;23;663;-65
2023/02/11 04:28:57;;;;;;;;;;;;;;;12.02;68.52;102951.78;1271750;23;652;-65
2023/02/11 04:29:48;;;;;;;;;;;;;;;12.01;69.50;102947.38;1271873;23;636;-65
2023/02/11 04:30:38;;;;;;;;;;;;;;;12.04;69.25;102949.94;1271527;23;661;-65